HTIR/IRI METAR and TAF weather

Enter ICAO airport designator
Station Type Date Time Source
HTIR METAR 2019/08/19 23:00 UTC NOAA

HTIR 192300Z 15012KT 9999 SKC 17/05 Q1021


Station Type Date Time Source
HTIR Decoded METAR 2019/08/19 23:00 UTC NOAA

Iringa, Tanzania (HTIR) 07-40S 035-45E 1428M
Aug 19, 2019 - 07:00 PM EDT / 2019.08.19 2300 UTC
Wind: from the SSE (150 degrees) at 14 MPH (12 KT):0
Visibility: greater than 7 mile(s):0
Sky conditions: clear
Temperature: 62 F (17 C)
Dew Point: 41 F (5 C)
Relative Humidity: 45%
Pressure (altimeter): 30.15 in. Hg (1021 hPa)
ob: HTIR 192300Z 15012KT 9999 SKC 17/05 Q1021
cycle: 23

Station Type Date Time Source
HTIR TAF UTC NOAA

Error!

Example: see airport list